Time;durP1;ratioP1;P1;durP2;ratioP2;P2;SDS_P1;SDS_P2;PMS_P1;PMS_P2;Temp;Humidity;BMP_temperature;BMP_pressure;BME280_temperature;BME280_humidity;BME280_pressure;Samples;Min_cycle;Max_cycle;Signal;HPM_P1;HPM_P2
2024/04/24 00:00:21;;;;;;;;;34.25;22.00;;;;;-143.90;77.90;75335.53;5319031;25;98380;-76
2024/04/24 00:02:49;;;;;;;;;29.00;27.25;;;;;-143.90;77.74;75341.75;5311046;25;100233;-77
2024/04/24 00:05:17;;;;;;;;;30.00;25.25;;;;;-143.90;78.56;75335.53;5307529;25;99787;-77
2024/04/24 00:07:44;;;;;;;;;38.00;29.00;;;;;-143.90;78.41;75329.34;5315645;25;98595;-76
2024/04/24 00:10:10;;;;;;;;;30.50;27.00;;;;;-143.90;78.21;75325.22;5315617;25;100024;-77
2024/04/24 00:12:37;;;;;;;;;26.25;25.00;;;;;-143.90;77.83;75329.34;5319061;25;98971;-76
2024/04/24 00:15:04;;;;;;;;;25.25;18.50;;;;;-143.90;77.64;75331.41;5307324;25;104040;-75
2024/04/24 00:17:31;;;;;;;;;28.50;20.00;;;;;-143.90;77.61;75323.16;5322682;25;98533;-77
2024/04/24 00:19:58;;;;;;;;;21.25;19.25;;;;;-143.90;77.42;75323.16;5310367;25;98833;-76
2024/04/24 00:22:24;;;;;;;;;16.25;11.75;;;;;-143.90;77.19;75314.88;5308306;25;98339;-75
2024/04/24 00:24:51;;;;;;;;;16.75;15.25;;;;;-143.90;77.16;75316.94;5310842;25;101214;-76
2024/04/24 00:27:18;;;;;;;;;9.00;9.00;;;;;-143.90;76.99;75316.94;5313464;25;98576;-75
2024/04/24 00:29:44;;;;;;;;;16.25;13.00;;;;;-143.90;77.09;75316.94;5321491;25;100111;-75
2024/04/24 00:32:11;;;;;;;;;21.50;14.75;;;;;-143.90;77.25;75316.94;5312642;25;98889;-75
2024/04/24 00:34:38;;;;;;;;;17.75;14.50;;;;;-143.90;76.83;75310.75;5314110;25;99940;-73
2024/04/24 00:37:05;;;;;;;;;11.50;11.50;;;;;-143.90;77.00;75312.81;5309392;25;98704;-76
2024/04/24 00:39:31;;;;;;;;;21.25;16.00;;;;;-143.90;77.44;75314.88;5305026;25;99419;-76
2024/04/24 00:41:58;;;;;;;;;20.25;16.00;;;;;-143.90;77.49;75312.81;5316495;25;100083;-76
2024/04/24 00:44:25;;;;;;;;;12.50;12.00;;;;;-143.90;77.58;75314.88;5311676;25;99723;-75
2024/04/24 00:46:52;;;;;;;;;10.50;10.25;;;;;-143.90;77.11;75323.16;5306415;25;99254;-76
2024/04/24 00:49:20;;;;;;;;;20.00;16.75;;;;;-143.90;77.31;75316.94;5308102;25;99228;-76
2024/04/24 00:51:47;;;;;;;;;19.00;16.00;;;;;-143.90;77.86;75325.22;5315356;25;98644;-76
2024/04/24 00:54:14;;;;;;;;;32.75;26.50;;;;;-143.90;79.31;75325.22;5311311;25;99752;-76
2024/04/24 00:56:41;;;;;;;;;33.33;26.33;;;;;-143.90;79.89;75329.34;5315219;25;98328;-75
2024/04/24 00:59:08;;;;;;;;;33.50;26.25;;;;;-143.90;80.01;75325.22;5296733;25;100202;-76
2024/04/24 01:01:35;;;;;;;;;29.25;24.00;;;;;-143.90;79.77;75331.41;5316117;25;98540;-75
2024/04/24 01:04:02;;;;;;;;;29.25;26.75;;;;;-143.90;79.89;75323.16;5302372;25;104456;-75
2024/04/24 01:06:29;;;;;;;;;29.50;27.25;;;;;-143.90;80.21;75325.22;5314970;25;98639;-76
2024/04/24 01:08:56;;;;;;;;;30.25;25.50;;;;;-143.90;80.43;75316.94;5304039;25;100283;-76
2024/04/24 01:11:22;;;;;;;;;28.25;23.00;;;;;-143.90;80.44;75321.06;5312637;25;98609;-76
2024/04/24 01:13:50;;;;;;;;;22.75;20.00;;;;;-143.90;80.38;75312.81;5314744;25;100015;-75
2024/04/24 01:16:23;;;;;;;;;25.50;22.50;;;;;-143.90;79.94;75304.53;5267987;26;103583;-75
2024/04/24 01:18:54;;;;;;;;;21.00;15.00;;;;;-143.90;80.11;75304.53;5304230;25;98141;-76
2024/04/24 01:21:28;;;;;;;;;20.25;16.25;;;;;-143.90;79.80;75294.19;5309675;25;98394;-76
2024/04/24 01:24:20;;;;;;;;;18.25;14.50;;;;;-143.90;79.64;75283.84;5316659;25;99831;-75
2024/04/24 01:26:51;;;;;;;;;15.50;12.00;;;;;-143.90;79.25;75275.59;5307629;25;99718;-76
2024/04/24 01:29:18;;;;;;;;;9.75;6.75;;;;;-143.90;79.27;75261.13;5310696;25;99464;-75
2024/04/24 01:31:44;;;;;;;;;10.25;7.75;;;;;-143.90;78.91;75259.06;5311828;25;98875;-76
2024/04/24 01:34:11;;;;;;;;;11.50;10.00;;;;;-143.90;78.88;75254.91;5275844;25;99973;-76
2024/04/24 01:36:38;;;;;;;;;8.00;7.25;;;;;-143.90;79.10;75242.50;5310181;25;98470;-75
2024/04/24 01:39:05;;;;;;;;;12.50;8.00;;;;;-143.90;78.90;75242.50;5284474;25;98379;-75
2024/04/24 01:41:31;;;;;;;;;12.00;10.00;;;;;-143.90;78.65;75234.25;5314390;25;98538;-76
2024/04/24 01:43:58;;;;;;;;;15.00;10.75;;;;;-143.90;78.73;75232.19;5305148;25;99870;-76
2024/04/24 01:46:25;;;;;;;;;7.75;6.50;;;;;-143.90;79.08;75219.78;5307181;25;101319;-75
2024/04/24 01:48:53;;;;;;;;;13.50;12.00;;;;;-143.90;78.94;75217.69;5299018;25;99432;-74
2024/04/24 01:51:20;;;;;;;;;16.25;12.00;;;;;-143.90;78.92;75209.44;5310960;25;98379;-76
2024/04/24 01:53:47;;;;;;;;;15.00;12.00;;;;;-143.90;78.92;75209.44;5316119;25;99831;-75
2024/04/24 01:56:14;;;;;;;;;17.50;15.25;;;;;-143.90;78.82;75197.03;5315151;25;98709;-75
2024/04/24 01:58:41;;;;;;;;;24.50;17.75;;;;;-143.90;78.85;75201.16;5307434;25;99303;-75
2024/04/24 02:01:08;;;;;;;;;15.75;13.50;;;;;-143.90;78.94;75194.97;5298298;25;101320;-75
2024/04/24 02:03:35;;;;;;;;;14.00;12.75;;;;;-143.90;79.20;75188.75;5311794;25;104305;-76
2024/04/24 02:06:01;;;;;;;;;8.75;7.00;;;;;-143.90;78.63;75184.63;5315960;25;98029;-76
2024/04/24 02:08:28;;;;;;;;;15.50;14.00;;;;;-143.90;79.04;75182.56;5316139;25;98196;-76
2024/04/24 02:10:55;;;;;;;;;14.50;10.50;;;;;-143.90;78.82;75174.28;5304891;25;98080;-75
2024/04/24 02:13:21;;;;;;;;;11.50;10.00;;;;;-143.90;78.72;75166.03;5312817;25;100366;-75
2024/04/24 02:15:48;;;;;;;;;11.75;10.00;;;;;-143.90;78.59;75170.16;5312529;25;98780;-75
2024/04/24 02:18:15;;;;;;;;;17.75;13.75;;;;;-143.90;79.01;75161.88;5312306;25;98192;-76
2024/04/24 02:20:42;;;;;;;;;13.00;12.75;;;;;-143.90;79.08;75159.81;5317563;25;100063;-75
2024/04/24 02:23:12;;;;;;;;;15.25;11.50;;;;;-143.90;78.75;75147.41;5304718;25;100726;-74
2024/04/24 02:25:39;;;;;;;;;20.25;16.50;;;;;-143.90;79.41;75147.41;5315598;25;98454;-75
2024/04/24 02:28:09;;;;;;;;;17.00;16.75;;;;;-143.90;78.89;75149.47;5319877;25;98129;-76
2024/04/24 02:30:36;;;;;;;;;21.75;15.25;;;;;-143.90;79.32;75139.16;5316157;25;99317;-76
2024/04/24 02:33:03;;;;;;;;;21.00;17.25;;;;;-143.90;79.07;75139.16;5295420;25;104455;-76
2024/04/24 02:35:30;;;;;;;;;17.00;15.00;;;;;-143.90;78.73;75132.94;5308722;25;98465;-76
2024/04/24 02:37:56;;;;;;;;;18.50;13.25;;;;;-143.90;78.78;75126.75;5314042;25;98347;-76
2024/04/24 02:40:23;;;;;;;;;19.00;11.75;;;;;-143.90;78.30;75126.75;5314728;25;98273;-76
2024/04/24 02:42:50;;;;;;;;;12.00;11.50;;;;;-143.90;78.48;75118.47;5304274;25;99755;-76
2024/04/24 02:45:16;;;;;;;;;11.50;11.00;;;;;-143.90;78.37;75110.19;5313159;25;98915;-75
2024/04/24 02:47:43;;;;;;;;;14.50;10.50;;;;;-143.90;78.14;75110.19;5320528;25;98083;-75
2024/04/24 02:50:10;;;;;;;;;10.75;10.75;;;;;-143.90;78.06;75114.34;5310338;25;98856;-75
2024/04/24 02:52:37;;;;;;;;;12.50;10.75;;;;;-143.90;78.01;75116.41;5308331;25;101059;-75
2024/04/24 02:55:04;;;;;;;;;17.50;15.75;;;;;-143.90;78.39;75122.59;5304931;26;98656;-76
2024/04/24 02:57:34;;;;;;;;;16.00;12.25;;;;;-143.90;78.48;75122.59;5308356;25;98902;-76
2024/04/24 03:00:00;;;;;;;;;11.50;9.25;;;;;-143.90;78.73;75108.13;5310812;25;98769;-76
2024/04/24 03:02:27;;;;;;;;;11.00;10.00;;;;;-143.90;78.46;75114.34;5313324;25;100198;-76
2024/04/24 03:04:54;;;;;;;;;17.00;12.25;;;;;-143.90;78.66;75104.00;5311959;25;98725;-75
2024/04/24 03:07:21;;;;;;;;;10.50;10.00;;;;;-143.90;78.63;75099.88;5311459;25;98445;-75
2024/04/24 03:09:47;;;;;;;;;7.50;7.00;;;;;-143.90;78.89;75095.72;5283678;26;99748;-76
2024/04/24 03:12:15;;;;;;;;;17.00;13.25;;;;;-143.90;78.68;75095.72;5303160;25;100320;-75
2024/04/24 03:14:42;;;;;;;;;15.50;13.75;;;;;-143.90;78.50;75089.53;5316187;25;103902;-71
2024/04/24 03:17:08;;;;;;;;;19.25;14.50;;;;;-143.90;78.84;75095.72;5302313;25;98117;-76
2024/04/24 03:19:37;;;;;;;;;21.00;15.50;;;;;-143.90;78.44;75104.00;5316074;25;98419;-76
2024/04/24 03:22:04;;;;;;;;;11.00;11.00;;;;;-143.90;78.42;75106.06;5317207;25;99734;-76
2024/04/24 03:24:33;;;;;;;;;19.50;16.25;;;;;-143.90;78.86;75093.66;5308753;25;98206;-76
2024/04/24 03:27:00;;;;;;;;;19.25;16.25;;;;;-143.90;78.88;75093.66;5305964;26;100313;-76
2024/04/24 03:29:27;;;;;;;;;19.50;16.25;;;;;-143.90;78.75;75089.53;5306410;25;98721;-76
2024/04/24 03:31:53;;;;;;;;;21.50;15.50;;;;;-143.90;78.30;75089.53;5311082;26;100569;-76
2024/04/24 03:34:22;;;;;;;;;15.25;14.00;;;;;-143.90;78.24;75085.38;5313872;25;98310;-76
2024/04/24 03:36:49;;;;;;;;;17.50;14.00;;;;;-143.90;78.75;75085.38;5302281;25;98038;-76
2024/04/24 03:39:16;;;;;;;;;11.00;10.50;;;;;-143.90;78.38;75081.25;5320892;25;98217;-76
2024/04/24 03:41:42;;;;;;;;;10.75;8.75;;;;;-143.90;78.40;75077.13;5312232;25;99824;-76
2024/04/24 03:44:09;;;;;;;;;13.50;8.00;;;;;-143.90;78.56;75075.06;5311589;25;98039;-76
2024/04/24 03:46:36;;;;;;;;;11.00;9.00;;;;;-143.90;78.30;75070.91;5317414;25;98744;-75
2024/04/24 03:49:02;;;;;;;;;14.75;12.25;;;;;-143.90;78.66;75066.78;5303550;25;98056;-75
2024/04/24 03:51:29;;;;;;;;;13.00;10.75;;;;;-143.90;78.66;75072.97;5319598;25;99881;-76
2024/04/24 03:53:56;;;;;;;;;8.75;7.00;;;;;-143.90;78.68;75060.59;5309765;25;98935;-75
2024/04/24 03:56:23;;;;;;;;;7.00;6.00;;;;;-143.90;78.65;75056.44;5312575;25;98477;-76
2024/04/24 03:58:49;;;;;;;;;11.00;10.00;;;;;-143.90;78.40;75052.31;5308648;25;100777;-73
2024/04/24 04:01:16;;;;;;;;;16.50;14.50;;;;;-143.90;78.30;75052.31;5324692;25;99946;-76
2024/04/24 04:03:43;;;;;;;;;15.25;12.50;;;;;-143.90;78.06;75050.25;5288270;25;99176;-75
2024/04/24 04:06:10;;;;;;;;;14.75;12.00;;;;;-143.90;78.21;75044.03;5313801;25;98081;-76
2024/04/24 04:08:37;;;;;;;;;12.00;11.25;;;;;-143.90;78.01;75037.84;5316095;25;98888;-76
2024/04/24 04:11:03;;;;;;;;;14.50;11.50;;;;;-143.90;78.01;75035.78;5298417;25;100396;-76
2024/04/24 04:13:30;;;;;;;;;11.00;10.00;;;;;-143.90;78.01;75031.63;5319069;25;98893;-75
2024/04/24 04:15:57;;;;;;;;;7.50;7.50;;;;;-143.90;77.84;75033.72;5322085;25;98155;-75
2024/04/24 04:18:23;;;;;;;;;13.25;9.75;;;;;-143.90;77.58;75025.44;5308563;25;99810;-75
2024/04/24 04:20:50;;;;;;;;;7.50;7.00;;;;;-143.90;77.72;75019.22;5304285;25;100073;-76
2024/04/24 04:23:17;;;;;;;;;12.50;12.00;;;;;-143.90;77.75;75023.38;5306299;26;98433;-75
2024/04/24 04:25:44;;;;;;;;;17.25;16.75;;;;;-143.90;77.83;75019.22;5311271;25;100263;-77
2024/04/24 04:28:10;;;;;;;;;22.00;20.25;;;;;-143.90;78.00;75019.22;5313400;25;98088;-77
2024/04/24 04:30:37;;;;;;;;;20.25;19.25;;;;;-143.90;77.80;75010.97;5310200;25;99754;-76
2024/04/24 04:33:04;;;;;;;;;35.75;26.50;;;;;-143.90;78.07;75008.91;5298340;25;98456;-75
2024/04/24 04:35:31;;;;;;;;;32.25;26.75;;;;;-143.90;77.99;75015.09;5316312;25;98005;-75
2024/04/24 04:37:57;;;;;;;;;30.25;23.50;;;;;-143.90;77.45;75004.75;5306657;25;98068;-76
2024/04/24 04:40:24;;;;;;;;;32.25;22.25;;;;;-143.90;77.40;75000.63;5315560;25;99706;-76
2024/04/24 04:42:51;;;;;;;;;29.50;23.75;;;;;-143.90;77.42;74996.50;5315278;25;100599;-76
2024/04/24 04:45:18;;;;;;;;;29.25;24.00;;;;;-143.90;77.11;74986.16;5313678;25;97977;-75
2024/04/24 04:47:44;;;;;;;;;27.50;25.25;;;;;-143.90;77.12;74988.22;5315146;25;98740;-75
2024/04/24 04:50:11;;;;;;;;;30.50;25.50;;;;;-143.90;77.28;74977.88;5315637;25;99888;-76
2024/04/24 04:52:38;;;;;;;;;31.00;25.50;;;;;-143.90;76.84;74977.88;5321441;25;98575;-75
2024/04/24 04:55:05;;;;;;;;;23.25;19.25;;;;;-143.90;77.01;74967.56;5297013;25;98359;-75
2024/04/24 04:57:31;;;;;;;;;20.25;20.25;;;;;-143.90;76.57;74959.28;5308140;25;98014;-75
2024/04/24 04:59:58;;;;;;;;;26.00;21.00;;;;;-143.90;76.58;74953.09;5317430;25;99718;-75
2024/04/24 05:02:25;;;;;;;;;17.50;17.00;;;;;-143.90;76.48;74948.94;5318607;25;100097;-75
2024/04/24 05:04:52;;;;;;;;;18.75;16.50;;;;;-143.90;76.52;74944.81;5298620;25;99821;-74
2024/04/24 05:07:19;;;;;;;;;17.50;13.00;;;;;-143.90;76.15;74936.53;5320670;25;97965;-73
2024/04/24 05:09:45;;;;;;;;;24.25;19.00;;;;;-143.90;76.42;74928.28;5320500;26;99730;-75
2024/04/24 05:12:12;;;;;;;;;23.75;21.50;;;;;-143.90;76.04;74924.13;5316352;25;99447;-75
2024/04/24 05:14:39;;;;;;;;;19.75;18.00;;;;;-143.90;76.13;74915.88;5317769;25;98583;-75
2024/04/24 05:17:07;;;;;;;;;15.50;13.75;;;;;-143.90;75.78;74909.66;5306355;25;98743;-76
2024/04/24 05:19:34;;;;;;;;;19.00;15.75;;;;;-143.90;75.53;74897.25;5315888;25;100637;-76
2024/04/24 05:22:01;;;;;;;;;28.50;19.25;;;;;-143.90;75.50;74893.13;5306766;25;98588;-76
2024/04/24 05:24:27;;;;;;;;;22.50;20.50;;;;;-143.90;75.38;74889.00;5320689;25;98388;-76
2024/04/24 05:29:39;;;;;;;;;38.50;27.00;;;;;-143.90;75.33;74878.66;5321510;25;99845;-76
2024/04/24 05:32:06;;;;;;;;;31.25;23.75;;;;;-143.90;75.06;74866.25;5315882;25;98514;-76
2024/04/24 05:34:33;;;;;;;;;26.75;23.00;;;;;-143.90;74.54;74853.84;5316297;25;98231;-76
2024/04/24 05:37:00;;;;;;;;;40.50;31.50;;;;;-143.90;74.54;74835.25;5313801;25;98019;-74
2024/04/24 05:39:27;;;;;;;;;41.25;34.25;;;;;-143.90;74.42;74837.31;5320128;25;100009;-75
2024/04/24 05:41:53;;;;;;;;;46.50;36.75;;;;;-143.90;73.98;74826.97;5309740;25;98713;-76
2024/04/24 05:44:21;;;;;;;;;39.25;35.00;;;;;-143.90;73.63;74820.78;5319515;25;98397;-75
2024/04/24 05:46:47;;;;;;;;;36.75;29.00;;;;;-143.90;73.55;74812.50;5316277;26;98377;-75
2024/04/24 05:49:15;;;;;;;;;38.50;26.25;;;;;-143.90;73.43;74804.25;5315203;25;104830;-76
2024/04/24 05:51:41;;;;;;;;;30.00;29.00;;;;;-143.90;73.39;74795.97;5319594;25;98053;-76
2024/04/24 05:54:08;;;;;;;;;40.25;29.50;;;;;-143.90;73.09;74791.84;5322569;25;99002;-76
2024/04/24 05:56:35;;;;;;;;;36.25;32.50;;;;;-143.90;72.78;74791.84;5315413;25;98300;-76
2024/04/24 05:59:02;;;;;;;;;37.50;33.25;;;;;-143.90;72.55;74785.63;5302788;25;99759;-76
2024/04/24 06:01:28;;;;;;;;;43.50;36.00;;;;;-143.90;72.35;74791.84;5314719;25;98308;-76
2024/04/24 06:03:55;;;;;;;;;47.50;34.25;;;;;-143.90;72.24;74787.69;5308232;25;97952;-75
2024/04/24 06:06:22;;;;;;;;;33.00;30.25;;;;;-143.90;72.48;74785.63;5314846;25;98015;-75
2024/04/24 06:08:48;;;;;;;;;38.25;35.00;;;;;-143.90;72.24;74791.84;5309916;26;99708;-71
2024/04/24 06:11:15;;;;;;;;;36.00;31.25;;;;;-143.90;72.35;74789.78;5321884;25;98380;-75
2024/04/24 06:13:42;;;;;;;;;39.00;33.00;;;;;-143.90;72.50;74789.78;5313950;25;98445;-75
2024/04/24 06:16:08;;;;;;;;;35.00;30.00;;;;;-143.90;72.55;74789.78;5316983;25;97904;-75
2024/04/24 06:18:35;;;;;;;;;30.75;28.00;;;;;-143.90;72.34;74779.44;5320427;25;101079;-75
2024/04/24 06:21:02;;;;;;;;;29.50;26.00;;;;;-143.90;72.19;74758.75;5300600;25;100012;-76
2024/04/24 06:23:29;;;;;;;;;35.00;28.00;;;;;-143.90;71.74;74746.34;5314605;25;98018;-75
2024/04/24 06:25:56;;;;;;;;;38.25;30.25;;;;;-143.90;71.56;74742.22;5322640;25;98181;-76
2024/04/24 06:28:23;;;;;;;;;24.00;20.00;;;;;-143.90;71.33;74721.56;5316568;25;99740;-75
2024/04/24 06:30:49;;;;;;;;;35.50;31.25;;;;;-143.90;70.95;74715.34;5312320;25;98558;-73
2024/04/24 06:33:16;;;;;;;;;28.50;24.75;;;;;-143.90;70.98;74707.09;5291827;26;98769;-76
2024/04/24 06:35:43;;;;;;;;;35.25;28.75;;;;;-143.90;71.02;74702.94;5321843;25;98118;-75
2024/04/24 06:38:10;;;;;;;;;25.50;20.50;;;;;-143.90;71.00;74692.63;5316522;25;99801;-75
2024/04/24 06:40:36;;;;;;;;;32.00;21.25;;;;;-143.90;70.89;74690.53;5321466;25;98432;-76
2024/04/24 06:43:03;;;;;;;;;35.00;30.00;;;;;-143.90;70.66;74682.28;5313298;25;98569;-76
2024/04/24 06:45:30;;;;;;;;;29.50;27.75;;;;;-143.90;70.63;74674.00;5323403;25;101009;-75
2024/04/24 06:47:57;;;;;;;;;31.50;25.25;;;;;-143.90;70.40;74661.59;5317314;25;99738;-76
2024/04/24 06:50:23;;;;;;;;;40.00;32.25;;;;;-143.90;69.88;74659.53;5317734;25;98566;-76
2024/04/24 06:52:50;;;;;;;;;33.50;27.25;;;;;-143.90;70.06;74649.19;5310263;25;97985;-76
2024/04/24 06:55:20;;;;;;;;;29.50;28.75;;;;;-143.90;69.84;74643.00;5321235;25;98373;-75
2024/04/24 06:57:48;;;;;;;;;30.75;27.00;;;;;-143.90;69.72;74632.66;5303815;25;104527;-75
2024/04/24 07:00:15;;;;;;;;;36.25;28.00;;;;;-143.90;69.43;74630.59;5316351;25;98985;-74
2024/04/24 07:02:41;;;;;;;;;24.75;23.00;;;;;-143.90;68.74;74622.34;5320957;25;98391;-76
2024/04/24 07:05:08;;;;;;;;;32.00;24.50;;;;;-143.90;68.87;74609.94;5310520;25;98553;-75
2024/04/24 07:07:35;;;;;;;;;26.75;24.00;;;;;-143.90;68.70;74589.25;5318267;25;100031;-76
2024/04/24 07:10:02;;;;;;;;;26.00;21.75;;;;;-143.90;68.79;74570.66;5324787;26;104469;-76
2024/04/24 07:12:29;;;;;;;;;32.75;28.00;;;;;-143.90;68.18;74562.38;5315132;25;98723;-76
2024/04/24 07:14:55;;;;;;;;;37.75;28.25;;;;;-143.90;67.94;74547.91;5314529;25;97979;-75
2024/04/24 07:17:22;;;;;;;;;36.75;31.50;;;;;-143.90;66.90;74549.97;5315431;25;99852;-74
2024/04/24 07:19:49;;;;;;;;;33.50;29.75;;;;;-143.90;66.76;74543.78;5318707;25;98340;-76
2024/04/24 07:22:16;;;;;;;;;40.00;35.00;;;;;-143.90;66.48;74547.91;5313363;25;98745;-75
2024/04/24 07:24:42;;;;;;;;;35.75;31.00;;;;;-143.90;66.74;74543.78;5316001;25;98527;-75
2024/04/24 07:27:09;;;;;;;;;28.50;26.50;;;;;-143.90;66.69;74527.25;5308258;25;99963;-75
2024/04/24 07:29:36;;;;;;;;;33.50;30.25;;;;;-143.90;66.16;74508.63;5320346;25;98506;-75
2024/04/24 07:32:03;;;;;;;;;34.00;27.50;;;;;-143.90;66.30;74477.63;5323982;26;98541;-75
2024/04/24 07:34:30;;;;;;;;;32.50;27.50;;;;;-143.90;65.77;74463.16;5317810;25;98158;-76
2024/04/24 07:36:57;;;;;;;;;32.75;30.25;;;;;-143.90;65.08;74440.44;5308418;25;99678;-76
2024/04/24 07:39:23;;;;;;;;;31.25;23.00;;;;;-143.90;64.25;74430.09;5307996;25;100755;-76
2024/04/24 07:41:50;;;;;;;;;34.25;30.50;;;;;-143.90;63.70;74425.97;5315530;25;99480;-75
2024/04/24 07:44:17;;;;;;;;;32.50;29.25;;;;;-143.90;63.97;74419.75;5323754;25;97895;-76
2024/04/24 07:46:43;;;;;;;;;33.75;31.50;;;;;-143.90;63.63;74399.09;5321597;25;104746;-76
2024/04/24 07:49:10;;;;;;;;;38.75;31.00;;;;;-143.90;62.45;74382.56;5308442;25;97945;-76
2024/04/24 07:51:37;;;;;;;;;32.25;30.50;;;;;-143.90;61.48;74370.16;5323572;25;97983;-75
2024/04/24 07:54:04;;;;;;;;;37.25;28.00;;;;;-143.90;61.64;74347.41;5316511;25;98565;-75
2024/04/24 07:56:30;;;;;;;;;32.75;26.00;;;;;-143.90;61.09;74324.69;5315462;25;99978;-76
2024/04/24 07:58:57;;;;;;;;;37.25;30.00;;;;;-143.90;61.21;74304.00;5308471;25;98728;-76
2024/04/24 08:01:24;;;;;;;;;31.25;28.75;;;;;-143.90;60.80;74260.59;5321493;25;101628;-75
2024/04/24 08:03:51;;;;;;;;;30.25;27.50;;;;;-143.90;60.24;74227.53;5320930;25;98417;-75
2024/04/24 08:06:17;;;;;;;;;29.25;27.75;;;;;-143.90;58.40;74206.88;5309705;25;99745;-76
2024/04/24 08:08:44;;;;;;;;;34.00;28.00;;;;;-143.90;58.47;74180.00;5319217;25;98398;-76
2024/04/24 08:11:11;;;;;;;;;28.25;25.50;;;;;-143.90;58.91;74138.66;5317169;25;98380;-75
2024/04/24 08:13:38;;;;;;;;;26.00;24.50;;;;;-143.90;57.45;74109.72;5306968;25;97911;-75
2024/04/24 08:16:05;;;;;;;;;33.50;29.50;;;;;-143.90;55.53;74080.78;5312586;25;100045;-76
2024/04/24 08:18:32;;;;;;;;;27.75;22.75;;;;;-143.90;56.46;74049.78;5313263;25;98365;-75
2024/04/24 08:20:59;;;;;;;;;27.75;24.75;;;;;-143.90;56.31;74031.19;5307366;25;98325;-75
2024/04/24 08:23:26;;;;;;;;;23.00;19.50;;;;;-143.90;56.09;74006.38;5317676;25;98383;-75
2024/04/24 08:25:54;;;;;;;;;19.25;18.25;;;;;-143.90;55.37;73991.91;5305152;25;99876;-75
2024/04/24 08:28:21;;;;;;;;;22.00;18.00;;;;;-143.90;55.51;73987.78;5319190;25;99809;-75
2024/04/24 08:31:04;;;;;;;;;18.75;17.00;;;;;-143.90;55.08;74006.38;5308946;25;100748;-75
2024/04/24 08:33:32;;;;;;;;;23.75;19.75;;;;;-143.90;53.78;74037.38;5318468;25;104028;-75
2024/04/24 08:36:09;;;;;;;;;19.50;18.25;;;;;-143.90;56.16;74047.72;5324956;25;99727;-75
2024/04/24 08:38:37;;;;;;;;;14.75;13.00;;;;;-143.90;56.84;74058.06;5312977;25;98496;-75
2024/04/24 08:41:08;;;;;;;;;13.25;12.25;;;;;-143.90;56.64;74055.97;5305594;25;100236;-76
2024/04/24 08:43:40;;;;;;;;;18.50;16.00;;;;;-143.90;56.05;74024.97;5319660;26;99106;-75
2024/04/24 08:46:10;;;;;;;;;17.75;15.50;;;;;-143.90;55.78;73998.13;5310184;25;100016;-76
2024/04/24 08:48:40;;;;;;;;;18.25;16.00;;;;;-143.90;55.60;73983.66;5317959;25;98405;-75
2024/04/24 08:51:09;;;;;;;;;21.50;18.75;;;;;-143.90;53.97;73973.31;5303307;25;98419;-76
2024/04/24 08:53:39;;;;;;;;;18.25;16.50;;;;;-143.90;53.90;73973.31;5318524;25;97981;-76
2024/04/24 08:56:12;;;;;;;;;24.25;23.50;;;;;-143.90;51.49;73956.78;5319903;25;100508;-75
2024/04/24 08:58:39;;;;;;;;;26.50;22.00;;;;;-143.90;52.37;73956.78;5318951;25;98034;-75
2024/04/24 09:01:12;;;;;;;;;23.75;19.00;;;;;-143.90;52.95;73956.78;5308664;25;100687;-75
2024/04/24 09:03:44;;;;;;;;;16.50;14.75;;;;;-143.90;53.24;73944.38;5315851;25;98243;-75
2024/04/24 09:06:12;;;;;;;;;16.25;15.75;;;;;-143.90;53.58;73936.09;5313788;25;99838;-76
2024/04/24 09:08:44;;;;;;;;;14.00;12.00;;;;;-143.90;52.71;73944.38;5311546;25;98298;-75
2024/04/24 09:11:11;;;;;;;;;19.25;18.75;;;;;-143.90;52.64;73946.44;5310764;25;98222;-75
2024/04/24 09:13:39;;;;;;;;;20.00;16.75;;;;;-143.90;52.19;73946.44;5312022;25;98404;-76
2024/04/24 09:16:07;;;;;;;;;14.00;14.00;;;;;-143.90;52.36;73927.84;5317060;25;99746;-75
2024/04/24 09:18:34;;;;;;;;;18.75;17.50;;;;;-143.90;51.40;73934.03;5313920;25;98164;-76
2024/04/24 09:21:03;;;;;;;;;19.50;18.75;;;;;-143.90;51.48;73938.19;5311071;25;98287;-76
2024/04/24 09:23:29;;;;;;;;;19.25;16.75;;;;;-143.90;51.49;73934.03;5308688;25;100821;-76
2024/04/24 09:25:57;;;;;;;;;20.25;18.25;;;;;-143.90;49.26;73956.78;5319045;25;99714;-76
2024/04/24 09:28:24;;;;;;;;;20.75;19.50;;;;;-143.90;49.52;73975.38;5315387;25;98097;-76
2024/04/24 09:30:52;;;;;;;;;21.75;19.75;;;;;-143.90;49.88;73987.78;5312757;25;97871;-75
2024/04/24 09:33:20;;;;;;;;;15.25;13.75;;;;;-143.90;50.27;73962.97;5316951;25;98291;-75
2024/04/24 09:35:47;;;;;;;;;12.50;10.50;;;;;-143.90;50.58;73936.09;5321378;25;104603;-76
2024/04/24 09:38:14;;;;;;;;;13.50;11.00;;;;;-143.90;50.63;73915.44;5315986;25;98052;-76
2024/04/24 09:40:41;;;;;;;;;10.00;9.00;;;;;-143.90;50.86;73917.50;5310330;25;98266;-75
2024/04/24 09:43:08;;;;;;;;;13.00;11.75;;;;;-143.90;50.46;73923.72;5306364;25;98395;-75
2024/04/24 09:45:35;;;;;;;;;17.75;15.25;;;;;-143.90;48.37;73948.50;5318494;25;104227;-75
2024/04/24 09:48:03;;;;;;;;;20.50;17.50;;;;;-143.90;48.22;73998.13;5313462;25;98562;-76
2024/04/24 09:50:33;;;;;;;;;17.25;15.00;;;;;-143.90;49.44;74020.84;5321396;25;98581;-76
2024/04/24 09:52:59;;;;;;;;;13.75;13.50;;;;;-143.90;50.12;74031.19;5313302;25;98068;-76
2024/04/24 09:55:33;;;;;;;;;16.25;15.00;;;;;-143.90;49.79;74043.59;5314791;25;99847;-76
2024/04/24 09:58:03;;;;;;;;;16.50;16.00;;;;;-143.90;49.49;74062.19;5310146;25;98596;-76
2024/04/24 10:00:33;;;;;;;;;19.25;17.00;;;;;-143.90;49.82;74060.13;5348241;25;98154;-76
2024/04/24 10:03:07;;;;;;;;;16.25;13.00;;;;;-143.90;50.12;74060.13;5306585;25;98286;-76
2024/04/24 10:05:36;;;;;;;;;11.00;10.00;;;;;-143.90;50.11;74039.44;5309532;25;99902;-77
2024/04/24 10:08:23;;;;;;;;;13.75;11.00;;;;;-143.90;49.47;74014.66;5313383;25;98415;-77
2024/04/24 10:10:52;;;;;;;;;18.50;16.75;;;;;-143.90;49.54;73998.13;5308668;25;98315;-74
2024/04/24 10:13:22;;;;;;;;;17.75;13.75;;;;;-143.90;49.30;73987.78;5328611;25;98194;-75
2024/04/24 10:15:58;;;;;;;;;13.00;12.50;;;;;-143.90;49.02;73956.78;5318964;25;104421;-73
2024/04/24 10:18:26;;;;;;;;;16.25;13.75;;;;;-143.90;47.56;73958.84;5317904;25;99475;-75
2024/04/24 10:20:54;;;;;;;;;14.00;13.00;;;;;-143.90;47.78;73944.38;5307804;25;97984;-75
2024/04/24 10:23:27;;;;;;;;;14.75;12.75;;;;;-143.90;48.00;73940.25;5324294;25;98534;-75
2024/04/24 10:25:55;;;;;;;;;17.50;12.25;;;;;-143.90;48.20;73919.56;5306368;25;103637;-76
2024/04/24 10:28:24;;;;;;;;;16.50;13.75;;;;;-143.90;47.73;73898.91;5317483;25;98435;-73
2024/04/24 10:30:54;;;;;;;;;11.00;10.25;;;;;-143.90;48.06;73892.69;5309578;25;97940;-72
2024/04/24 10:33:22;;;;;;;;;12.75;11.50;;;;;-143.90;47.91;73878.25;5320243;25;97984;-73
2024/04/24 10:35:49;;;;;;;;;9.25;9.00;;;;;-143.90;47.61;73880.31;5318173;25;100238;-72
2024/04/24 10:38:16;;;;;;;;;10.75;10.00;;;;;-143.90;48.15;73890.63;5317358;25;98261;-72
2024/04/24 10:40:48;;;;;;;;;19.75;17.50;;;;;-143.90;47.27;73915.44;5317110;25;98541;-72
2024/04/24 10:43:16;;;;;;;;;29.50;25.00;;;;;-143.90;47.29;73948.50;5298930;25;97929;-72
2024/04/24 10:45:43;;;;;;;;;22.50;21.25;;;;;-143.90;48.06;74000.19;5312565;25;99779;-72
2024/04/24 10:48:13;;;;;;;;;23.00;18.00;;;;;-143.90;48.86;74035.31;5317369;25;98569;-72
2024/04/24 10:50:41;;;;;;;;;20.75;19.00;;;;;-143.90;48.89;74058.06;5318528;25;98311;-72
2024/04/24 10:53:13;;;;;;;;;26.75;24.00;;;;;-143.90;49.60;74089.06;5310000;25;98504;-72
2024/04/24 10:55:57;;;;;;;;;32.00;27.75;;;;;-143.90;50.33;74118.00;5314538;25;99709;-72
2024/04/24 10:58:25;;;;;;;;;28.75;24.50;;;;;-143.90;50.59;74134.53;5312165;25;98151;-73
2024/04/24 11:00:51;;;;;;;;;30.00;25.25;;;;;-143.90;50.87;74140.72;5302767;25;98223;-74
2024/04/24 11:03:23;;;;;;;;;26.25;24.00;;;;;-143.90;50.89;74151.06;5310006;25;98894;-76
2024/04/24 11:05:50;;;;;;;;;29.50;25.75;;;;;-143.90;51.31;74146.91;5315561;25;104603;-75